Time;durP1;ratioP1;P1;durP2;ratioP2;P2;SDS_P1;SDS_P2;PMS_P1;PMS_P2;Temp;Humidity;BMP_temperature;BMP_pressure;BME280_temperature;BME280_humidity;BME280_pressure;Samples;Min_cycle;Max_cycle;Signal;HPM_P1;HPM_P2
2023/08/26 00:00:47;;;;;;;6.32;4.68;;;;;;;24.43;nan;99889.88;4982551;28;20597;-77
2023/08/26 00:03:13;;;;;;;5.82;5.00;;;;;;;24.42;nan;99891.72;4986725;28;20660;-77
2023/08/26 00:05:39;;;;;;;6.75;4.43;;;;;;;24.42;nan;99891.72;4989644;28;20441;-77
2023/08/26 00:08:04;;;;;;;4.60;4.20;;;;;;;24.42;nan;99899.66;4986072;28;20157;-77
2023/08/26 00:10:30;;;;;;;9.15;5.15;;;;;;;24.43;nan;99908.47;4985077;28;20034;-77
2023/08/26 00:12:55;;;;;;;8.95;4.88;;;;;;;24.42;nan;99910.28;4994660;28;20030;-77
2023/08/26 00:15:22;;;;;;;10.30;5.30;;;;;;;24.46;nan;99924.09;4992814;28;20038;-76
2023/08/26 00:17:47;;;;;;;9.38;4.72;;;;;;;24.47;nan;99936.38;4983689;28;20033;-76
2023/08/26 00:20:12;;;;;;;7.47;4.22;;;;;;;24.46;nan;99945.31;4983800;28;20040;-76
2023/08/26 00:22:38;;;;;;;8.82;4.65;;;;;;;24.45;nan;99948.94;4988748;28;20061;-77
2023/08/26 00:25:04;;;;;;;9.02;4.43;;;;;;;24.47;nan;99952.28;4990499;28;20026;-77
2023/08/26 00:27:29;;;;;;;9.40;4.28;;;;;;;24.45;nan;99941.84;4984749;28;20049;-76
2023/08/26 00:29:55;;;;;;;6.65;4.38;;;;;;;24.46;nan;99924.09;4983285;28;20044;-76
2023/08/26 00:32:20;;;;;;;10.50;4.38;;;;;;;24.45;nan;99928.56;4986534;28;20129;-75
2023/08/26 00:34:45;;;;;;;8.85;4.57;;;;;;;24.45;nan;99925.06;4987251;28;20022;-76
2023/08/26 00:37:12;;;;;;;7.10;4.47;;;;;;;24.46;nan;99924.94;4984400;28;20038;-77
2023/08/26 00:39:37;;;;;;;9.73;4.70;;;;;;;24.46;nan;99918.78;4984071;28;20034;-77
2023/08/26 00:42:03;;;;;;;8.55;4.47;;;;;;;24.44;nan;99916.25;4983040;28;20501;-77
2023/08/26 00:44:28;;;;;;;5.28;4.40;;;;;;;24.46;nan;99918.78;4991856;28;20033;-77
2023/08/26 00:46:54;;;;;;;7.43;4.70;;;;;;;24.45;nan;99917.94;4984950;28;20056;-77
2023/08/26 00:49:20;;;;;;;8.65;4.38;;;;;;;24.45;nan;99922.41;4984825;28;21315;-77
2023/08/26 00:51:45;;;;;;;5.82;4.60;;;;;;;24.46;nan;99932.88;4984027;28;20026;-77
2023/08/26 00:54:11;;;;;;;6.45;4.28;;;;;;;24.45;nan;99933.88;4972578;28;20457;-76
2023/08/26 00:56:36;;;;;;;5.90;4.40;;;;;;;24.45;nan;99944.50;4984772;28;20116;-76
2023/08/26 00:59:02;;;;;;;5.40;4.68;;;;;;;24.46;nan;99934.72;4983152;28;20176;-76
2023/08/26 01:01:29;;;;;;;6.00;4.68;;;;;;;24.45;nan;99933.88;4983804;28;20030;-77
2023/08/26 01:03:55;;;;;;;4.43;4.03;;;;;;;24.46;nan;99946.16;4987896;28;20072;-77
2023/08/26 01:06:20;;;;;;;6.22;3.75;;;;;;;24.45;nan;99957.75;4984283;28;20410;-76
2023/08/26 01:08:46;;;;;;;7.05;4.78;;;;;;;24.45;nan;99965.72;4984732;28;20029;-77
2023/08/26 01:11:25;;;;;;;7.47;4.70;;;;;;;24.46;nan;99970.03;4983653;28;20026;-77
2023/08/26 01:14:12;;;;;;;4.63;4.07;;;;;;;24.46;nan;99967.38;4969196;28;20070;-76
2023/08/26 01:16:39;;;;;;;5.50;3.95;;;;;;;24.46;nan;99972.69;4968154;28;20031;-76
2023/08/26 01:19:08;;;;;;;5.22;3.70;;;;;;;24.46;nan;99980.66;4982873;28;20034;-76
2023/08/26 01:21:37;;;;;;;;;;;;;;;24.46;nan;99972.69;4984298;28;21291;-76
2023/08/26 01:24:03;;;;;;;4.47;4.07;;;;;;;24.46;nan;99975.34;4987285;28;20634;-76
2023/08/26 01:26:28;;;;;;;5.07;4.10;;;;;;;24.45;nan;99976.34;4985514;28;20069;-77
2023/08/26 01:28:54;;;;;;;5.28;3.92;;;;;;;24.46;nan;99972.69;4984307;28;20037;-77
2023/08/26 01:31:20;;;;;;;5.78;4.22;;;;;;;24.46;nan;99962.06;4983915;28;20036;-76
2023/08/26 01:33:56;;;;;;;4.78;3.92;;;;;;;24.46;nan;99958.59;4971718;28;20061;-76
2023/08/26 01:36:23;;;;;;;6.20;4.32;;;;;;;24.45;nan;99963.06;4985305;28;20037;-76
2023/08/26 01:38:49;;;;;;;5.05;3.80;;;;;;;24.47;nan;99984.13;4982807;28;20042;-77
2023/08/26 01:41:17;;;;;;;5.43;3.90;;;;;;;24.46;nan;99988.59;4983582;28;20065;-76
2023/08/26 01:43:43;;;;;;;6.78;4.78;;;;;;;24.46;nan;99987.78;4977081;28;20692;-76
2023/08/26 01:46:08;;;;;;;4.20;3.90;;;;;;;24.46;nan;99996.56;4981274;28;20076;-74
2023/08/26 01:48:34;;;;;;;6.07;3.90;;;;;;;24.46;nan;99985.13;4983603;28;20076;-76
2023/08/26 01:50:59;;;;;;;6.38;3.92;;;;;;;24.46;nan;99982.47;4983706;28;20034;-76
2023/08/26 01:53:24;;;;;;;6.45;4.50;;;;;;;24.45;nan;99991.38;4970135;28;20038;-76
2023/08/26 01:55:50;;;;;;;7.85;4.38;;;;;;;24.49;nan;99982.97;4982523;28;20238;-77
2023/08/26 01:58:15;;;;;;;5.18;4.63;;;;;;;24.52;nan;99990.66;4983505;28;20067;-76
2023/08/26 02:00:41;;;;;;;5.65;3.95;;;;;;;24.52;nan;99998.63;4983350;28;20144;-76
2023/08/26 02:03:06;;;;;;;6.25;4.28;;;;;;;24.51;nan;100002.25;4989844;28;20876;-76
2023/08/26 02:05:31;;;;;;;8.40;3.90;;;;;;;24.53;nan;100005.59;4994840;28;20469;-77
2023/08/26 02:07:56;;;;;;;5.15;4.50;;;;;;;24.54;nan;100007.25;4986057;28;20042;-77
2023/08/26 02:10:22;;;;;;;7.93;4.60;;;;;;;24.55;nan;100011.56;4983672;28;20069;-78
2023/08/26 02:12:47;;;;;;;9.98;4.32;;;;;;;24.54;nan;100012.56;4981398;28;20467;-77
2023/08/26 02:15:13;;;;;;;5.22;3.97;;;;;;;24.54;nan;100012.56;4986688;28;20037;-77
2023/08/26 02:17:39;;;;;;;6.70;4.03;;;;;;;24.55;nan;100010.72;4965601;28;20074;-78
2023/08/26 02:20:07;;;;;;;8.18;4.10;;;;;;;24.54;nan;100022.34;4982774;28;20041;-77
2023/08/26 02:22:32;;;;;;;6.55;4.00;;;;;;;24.55;nan;100016.03;4982380;28;20046;-77
2023/08/26 02:24:58;;;;;;;5.40;3.92;;;;;;;24.55;nan;100018.69;4986158;28;20099;-78
2023/08/26 02:27:23;;;;;;;9.25;4.05;;;;;;;24.55;nan;100018.69;4982092;28;20050;-76
2023/08/26 02:29:48;;;;;;;9.13;4.32;;;;;;;24.57;nan;100019.41;4983155;28;20038;-77
2023/08/26 02:32:14;;;;;;;6.15;4.18;;;;;;;24.55;nan;100024.84;4981999;28;20089;-76
2023/08/26 02:34:39;;;;;;;5.53;3.88;;;;;;;24.55;nan;100038.09;4977716;28;20046;-76
2023/08/26 02:37:04;;;;;;;5.63;3.83;;;;;;;24.55;nan;100032.81;4982748;28;20033;-76
2023/08/26 02:39:30;;;;;;;6.13;3.83;;;;;;;24.56;nan;100021.22;4983531;28;20042;-75
2023/08/26 02:41:55;;;;;;;5.55;3.83;;;;;;;24.56;nan;100025.66;4982434;28;20030;-75
2023/08/26 02:44:20;;;;;;;8.90;3.83;;;;;;;24.56;nan;100025.66;4987012;28;20033;-75
2023/08/26 02:46:46;;;;;;;5.72;4.10;;;;;;;24.55;nan;100030.16;4985085;28;20408;-76
2023/08/26 02:49:11;;;;;;;6.00;4.22;;;;;;;24.56;nan;100034.50;4982171;28;20045;-76
2023/08/26 02:51:36;;;;;;;7.03;3.85;;;;;;;24.56;nan;100030.97;4982921;28;20029;-75
2023/08/26 02:54:02;;;;;;;3.92;3.53;;;;;;;24.56;nan;100042.47;4989967;28;20049;-76
2023/08/26 02:56:27;;;;;;;4.00;3.45;;;;;;;24.56;nan;100063.69;4980309;28;20033;-77
2023/08/26 02:58:52;;;;;;;5.43;3.72;;;;;;;24.56;nan;100071.66;4982290;28;20038;-78
2023/08/26 03:01:18;;;;;;;4.22;3.53;;;;;;;24.57;nan;100064.53;4982863;28;20141;-76
2023/08/26 03:03:43;;;;;;;3.70;3.40;;;;;;;24.57;nan;100060.03;4989562;28;20150;-76
2023/08/26 03:06:09;;;;;;;3.88;3.35;;;;;;;24.58;nan;100068.84;4979236;28;20084;-76
2023/08/26 03:08:34;;;;;;;7.03;3.85;;;;;;;24.58;nan;100060.88;4982666;28;20037;-76
2023/08/26 03:11:02;;;;;;;4.40;3.60;;;;;;;24.58;nan;100068.84;4983362;28;20521;-77
2023/08/26 03:13:28;;;;;;;3.72;3.42;;;;;;;24.57;nan;100068.00;4993588;28;20540;-76
2023/08/26 03:15:53;;;;;;;6.00;3.63;;;;;;;24.58;nan;100072.31;4991799;28;20048;-76
2023/08/26 03:18:18;;;;;;;6.35;3.20;;;;;;;24.58;nan;100072.31;4982173;28;20086;-75
2023/08/26 03:20:44;;;;;;;3.85;3.53;;;;;;;24.59;nan;100071.34;4982320;28;20049;-77
2023/08/26 03:23:09;;;;;;;5.30;3.53;;;;;;;24.61;nan;100070.34;4986973;28;20030;-77
2023/08/26 03:25:38;;;;;;;5.80;3.38;;;;;;;24.61;nan;100080.97;4979496;28;20869;-77
2023/08/26 03:28:04;;;;;;;5.72;3.72;;;;;;;24.61;nan;100080.97;4983663;28;20162;-77
2023/08/26 03:30:29;;;;;;;5.57;3.70;;;;;;;24.59;nan;100084.59;4983545;28;20060;-77
2023/08/26 03:32:54;;;;;;;8.98;3.70;;;;;;;24.60;nan;100085.44;4969656;28;20379;-76
2023/08/26 03:35:20;;;;;;;4.57;3.72;;;;;;;24.61;nan;100096.88;4977970;28;20026;-77
2023/08/26 03:37:45;;;;;;;4.68;3.58;;;;;;;24.62;nan;100102.06;4987780;28;20030;-76
2023/08/26 03:40:11;;;;;;;5.97;3.67;;;;;;;24.61;nan;100089.75;4987339;28;20030;-78
2023/08/26 03:42:36;;;;;;;6.15;3.40;;;;;;;24.61;nan;100087.09;4982765;28;20034;-78
2023/08/26 03:45:02;;;;;;;4.20;3.47;;;;;;;24.61;nan;100086.28;4983820;28;20099;-77
2023/08/26 03:47:27;;;;;;;6.55;3.97;;;;;;;24.61;nan;100099.53;4985572;28;20083;-77
2023/08/26 03:49:53;;;;;;;4.00;3.50;;;;;;;24.62;nan;100090.59;4987149;28;20144;-77
2023/08/26 03:52:18;;;;;;;6.32;3.42;;;;;;;24.62;nan;100098.56;4988991;28;20552;-78
2023/08/26 03:54:43;;;;;;;4.20;3.65;;;;;;;24.60;nan;100106.69;4987414;28;20108;-77
2023/08/26 03:57:09;;;;;;;4.60;3.67;;;;;;;24.61;nan;100110.16;4987042;28;20132;-77
2023/08/26 03:59:34;;;;;;;6.55;4.10;;;;;;;24.62;nan;100109.16;4986987;28;20145;-77
2023/08/26 04:01:59;;;;;;;4.68;3.72;;;;;;;24.62;nan;100114.47;4987472;28;20065;-77
2023/08/26 04:04:25;;;;;;;5.47;3.60;;;;;;;24.61;nan;100108.34;4987848;28;20463;-77
2023/08/26 04:06:50;;;;;;;5.25;3.85;;;;;;;24.61;nan;100113.66;4969887;28;20034;-76
2023/08/26 04:09:16;;;;;;;4.85;3.42;;;;;;;24.61;nan;100107.50;4986724;28;20029;-76
2023/08/26 04:11:42;;;;;;;5.63;3.42;;;;;;;24.61;nan;100107.50;4985844;28;20797;-77
2023/08/26 04:14:08;;;;;;;4.90;3.70;;;;;;;24.61;nan;100104.84;4994413;28;20034;-76
2023/08/26 04:16:33;;;;;;;5.55;3.35;;;;;;;24.61;nan;100105.69;4987509;28;20104;-77
2023/08/26 04:18:58;;;;;;;5.45;3.50;;;;;;;24.62;nan;100106.50;4984988;28;20185;-79
2023/08/26 04:21:24;;;;;;;6.07;3.25;;;;;;;24.64;nan;100108.06;4984348;28;20132;-78
2023/08/26 04:23:49;;;;;;;6.50;3.47;;;;;;;24.65;nan;100103.56;4988200;28;20375;-79
2023/08/26 04:26:14;;;;;;;4.68;3.60;;;;;;;24.65;nan;100108.88;4982471;28;20054;-78
2023/08/26 04:28:40;;;;;;;7.57;3.88;;;;;;;24.65;nan;100109.72;4985182;28;20457;-78
2023/08/26 04:31:07;;;;;;;4.40;3.10;;;;;;;24.65;nan;100114.19;4985131;28;20036;-78
2023/08/26 04:33:33;;;;;;;5.72;3.42;;;;;;;24.66;nan;100121.16;4988426;28;20036;-79
2023/08/26 04:35:58;;;;;;;4.20;3.50;;;;;;;24.65;nan;100125.66;4987397;28;20045;-78
2023/08/26 04:38:24;;;;;;;3.97;3.35;;;;;;;24.66;nan;100137.09;4986608;28;20568;-78
2023/08/26 04:40:49;;;;;;;3.78;3.40;;;;;;;24.65;nan;100130.94;4985778;28;20076;-77
2023/08/26 04:43:14;;;;;;;4.03;3.22;;;;;;;24.65;nan;100133.59;4979785;28;20037;-77
2023/08/26 04:45:40;;;;;;;3.75;3.00;;;;;;;24.64;nan;100123.97;4987416;28;20106;-77
2023/08/26 04:48:07;;;;;;;5.50;3.45;;;;;;;24.64;nan;100134.59;4983711;28;20033;-78
2023/08/26 04:50:32;;;;;;;3.65;3.30;;;;;;;24.64;nan;100133.75;4984718;28;20045;-77
2023/08/26 04:52:57;;;;;;;4.22;3.40;;;;;;;24.64;nan;100133.75;4986192;28;20034;-76
2023/08/26 04:55:23;;;;;;;3.75;3.10;;;;;;;24.65;nan;100133.59;4990209;28;20035;-77
2023/08/26 04:57:48;;;;;;;4.05;3.17;;;;;;;24.66;nan;100132.63;4984407;28;20147;-77
2023/08/26 05:00:16;;;;;;;5.78;3.35;;;;;;;24.65;nan;100138.09;4983516;28;20516;-78
2023/08/26 05:02:42;;;;;;;4.38;3.10;;;;;;;24.64;nan;100144.38;4988615;28;20896;-77
2023/08/26 05:05:07;;;;;;;4.03;3.38;;;;;;;24.64;nan;100149.69;4994799;28;20032;-77
2023/08/26 05:07:33;;;;;;;4.85;3.28;;;;;;;24.61;nan;100153.47;4985545;28;20057;-77
2023/08/26 05:09:58;;;;;;;4.88;3.50;;;;;;;24.62;nan;100156.94;4986713;28;20441;-77
2023/08/26 05:12:24;;;;;;;3.70;3.08;;;;;;;24.61;nan;100164.06;4992305;28;21102;-77
2023/08/26 05:14:49;;;;;;;5.07;3.00;;;;;;;24.62;nan;100156.94;4990644;28;20050;-77
2023/08/26 05:17:14;;;;;;;6.93;3.10;;;;;;;24.61;nan;100152.63;4983363;28;20080;-76
2023/08/26 05:19:40;;;;;;;6.30;3.42;;;;;;;24.61;nan;100155.28;4985026;28;20065;-77
2023/08/26 05:22:05;;;;;;;3.95;3.05;;;;;;;24.62;nan;100157.81;4986849;28;20169;-77
2023/08/26 05:24:30;;;;;;;4.38;3.30;;;;;;;24.61;nan;100150.81;4989724;28;20069;-77
2023/08/26 05:26:57;;;;;;;6.43;3.33;;;;;;;24.61;nan;100163.25;4982929;28;20050;-77
2023/08/26 05:29:22;;;;;;;4.43;2.90;;;;;;;24.61;nan;100163.25;4983459;28;20034;-76
2023/08/26 05:31:48;;;;;;;6.13;3.65;;;;;;;24.61;nan;100172.03;4980837;28;20045;-75
2023/08/26 05:34:13;;;;;;;4.80;3.10;;;;;;;24.61;nan;100176.50;4995728;28;20033;-76
2023/08/26 05:36:39;;;;;;;4.43;3.40;;;;;;;24.61;nan;100173.88;4988887;28;20099;-76
2023/08/26 05:39:04;;;;;;;3.33;3.03;;;;;;;24.61;nan;100187.13;4967463;28;20026;-75
2023/08/26 05:41:29;;;;;;;4.22;3.15;;;;;;;24.61;nan;100185.31;4984859;28;20509;-76
2023/08/26 05:43:55;;;;;;;4.70;4.07;;;;;;;24.61;nan;100187.13;4998375;28;20040;-76
2023/08/26 05:46:20;;;;;;;7.78;3.63;;;;;;;24.61;nan;100189.78;4990728;28;20030;-76
2023/08/26 05:48:45;;;;;;;3.65;3.00;;;;;;;24.61;nan;100201.25;4985428;28;20029;-76
2023/08/26 05:51:11;;;;;;;4.97;2.80;;;;;;;24.61;nan;100195.09;4983725;28;20635;-76
2023/08/26 05:53:36;;;;;;;3.22;2.90;;;;;;;24.59;nan;100193.44;4988757;28;20494;-76
2023/08/26 05:56:01;;;;;;;3.70;3.40;;;;;;;24.61;nan;100195.09;4967674;28;20597;-76
2023/08/26 05:58:27;;;;;;;4.40;3.20;;;;;;;24.59;nan;100196.09;4983509;28;20045;-76
2023/08/26 06:00:52;;;;;;;6.75;3.03;;;;;;;24.59;nan;100200.56;4983585;28;20038;-76
2023/08/26 06:03:17;;;;;;;4.35;3.30;;;;;;;24.59;nan;100200.56;4983531;28;20537;-76
2023/08/26 06:05:43;;;;;;;4.55;2.92;;;;;;;24.61;nan;100208.38;4981800;28;20046;-76
2023/08/26 06:08:09;;;;;;;3.40;3.08;;;;;;;24.61;nan;100216.34;4981835;28;20099;-77
2023/08/26 06:10:34;;;;;;;3.55;2.85;;;;;;;24.61;nan;100216.34;4981740;28;20029;-76
2023/08/26 06:12:59;;;;;;;4.20;2.80;;;;;;;24.61;nan;100213.69;4987139;28;20477;-76
2023/08/26 06:15:25;;;;;;;4.30;3.15;;;;;;;24.61;nan;100224.28;4967721;28;20786;-77
2023/08/26 06:17:50;;;;;;;5.75;2.70;;;;;;;24.61;nan;100224.28;4983632;28;20196;-77
2023/08/26 06:20:15;;;;;;;5.53;3.00;;;;;;;24.60;nan;100236.72;4983353;28;20553;-77
2023/08/26 06:22:42;;;;;;;3.20;2.55;;;;;;;24.60;nan;100234.06;4988008;28;20113;-77
2023/08/26 06:25:07;;;;;;;3.10;2.72;;;;;;;24.59;nan;100243.88;4983190;28;20026;-77
2023/08/26 06:27:33;;;;;;;3.28;2.90;;;;;;;24.59;nan;100251.81;4945245;28;1117476;-76
2023/08/26 06:30:02;;;;;;;6.20;3.03;;;;;;;24.59;nan;100251.81;4985216;28;20029;-76
2023/08/26 06:32:27;;;;;;;6.82;3.92;;;;;;;24.59;nan;100245.69;4982120;28;20046;-77
2023/08/26 06:34:53;;;;;;;3.55;2.88;;;;;;;24.58;nan;100236.88;4996433;28;20033;-77
2023/08/26 06:37:18;;;;;;;3.17;2.88;;;;;;;24.59;nan;100245.69;4982651;28;20030;-76
2023/08/26 06:39:43;;;;;;;3.42;2.72;;;;;;;24.58;nan;100244.84;4983004;28;20570;-77
2023/08/26 06:42:10;;;;;;;3.40;2.78;;;;;;;24.59;nan;100238.56;4982605;28;20113;-77
2023/08/26 06:44:36;;;;;;;4.00;2.78;;;;;;;24.59;nan;100246.50;4981613;28;20360;-76
2023/08/26 06:47:01;;;;;;;3.20;2.70;;;;;;;24.59;nan;100254.47;4982049;28;20109;-76
2023/08/26 06:49:26;;;;;;;4.75;3.10;;;;;;;24.59;nan;100249.16;4982620;28;20124;-77
2023/08/26 06:51:52;;;;;;;4.03;2.70;;;;;;;24.59;nan;100237.72;4985329;28;20029;-77
2023/08/26 06:54:17;;;;;;;4.05;2.92;;;;;;;24.57;nan;100232.56;4990554;28;20029;-76
2023/08/26 06:56:42;;;;;;;3.22;2.80;;;;;;;24.58;nan;100223.63;4984760;28;20573;-76
2023/08/26 06:59:08;;;;;;;3.10;2.80;;;;;;;24.59;nan;100233.25;4982717;28;20041;-75
2023/08/26 07:01:34;;;;;;;3.45;2.75;;;;;;;24.59;nan;100230.59;4980960;28;20037;-76
2023/08/26 07:04:09;;;;;;;4.35;2.80;;;;;;;24.59;nan;100230.59;4985956;28;20133;-77
2023/08/26 07:06:35;;;;;;;3.80;2.60;;;;;;;24.59;nan;100232.41;4983701;28;20142;-77
2023/08/26 07:09:01;;;;;;;3.45;2.67;;;;;;;24.61;nan;100235.75;4968410;28;20500;-78
2023/08/26 07:11:26;;;;;;;3.65;2.78;;;;;;;24.60;nan;100239.38;4983441;28;21109;-77
2023/08/26 07:13:52;;;;;;;5.25;2.90;;;;;;;24.61;nan;100240.22;4983966;28;20037;-76
2023/08/26 07:16:17;;;;;;;6.53;3.13;;;;;;;24.62;nan;100247.19;4979945;28;20724;-77
2023/08/26 07:18:42;;;;;;;6.00;3.30;;;;;;;24.62;nan;100239.22;4983387;28;21402;-77
2023/08/26 07:21:08;;;;;;;2.97;2.65;;;;;;;24.61;nan;100229.59;4966368;28;20034;-76
2023/08/26 07:23:33;;;;;;;4.82;2.83;;;;;;;24.62;nan;100225.97;4993103;28;20026;-76
2023/08/26 07:25:58;;;;;;;3.58;2.50;;;;;;;24.61;nan;100230.44;4988355;28;20076;-77
2023/08/26 07:28:24;;;;;;;4.18;2.65;;;;;;;24.61;nan;100230.44;4982849;28;20040;-77
2023/08/26 07:30:51;;;;;;;4.95;2.35;;;;;;;24.61;nan;100224.28;4964674;28;20030;-76
2023/08/26 07:33:16;;;;;;;2.95;2.47;;;;;;;24.61;nan;100237.56;4986257;28;20780;-77
2023/08/26 07:35:41;;;;;;;5.32;2.45;;;;;;;24.61;nan;100234.91;4986140;28;20054;-77
2023/08/26 07:38:07;;;;;;;3.55;2.40;;;;;;;24.60;nan;100236.72;4981079;28;20042;-77
2023/08/26 07:40:32;;;;;;;4.05;2.63;;;;;;;24.60;nan;100250.00;4981964;28;20088;-77
2023/08/26 07:42:59;;;;;;;5.20;2.70;;;;;;;24.61;nan;100237.56;4983975;28;20034;-76
2023/08/26 07:45:25;;;;;;;4.93;2.88;;;;;;;24.62;nan;100225.97;4982460;28;20030;-78
2023/08/26 07:47:51;;;;;;;3.05;2.75;;;;;;;24.62;nan;100224.16;4978891;28;20576;-78
2023/08/26 07:50:17;;;;;;;4.57;2.97;;;;;;;24.61;nan;100235.75;4981257;28;20030;-78
2023/08/26 07:52:44;;;;;;;3.47;2.58;;;;;;;24.62;nan;100241.88;4984084;28;20061;-78
2023/08/26 07:55:12;;;;;;;5.55;2.90;;;;;;;24.62;nan;100252.50;4979773;28;20765;-77
2023/08/26 07:57:37;;;;;;;4.72;2.60;;;;;;;24.62;nan;100252.50;4980365;28;20073;-78
2023/08/26 08:00:05;;;;;;;4.60;2.85;;;;;;;24.61;nan;100245.53;4979117;28;20036;-78
2023/08/26 08:02:31;;;;;;;4.13;2.65;;;;;;;24.60;nan;100244.69;4990492;28;20033;-78
2023/08/26 08:04:56;;;;;;;6.15;3.03;;;;;;;24.61;nan;100246.38;4980631;28;20034;-77
2023/08/26 08:07:22;;;;;;;6.30;2.88;;;;;;;24.61;nan;100232.25;4976146;28;20046;-77
2023/08/26 08:09:48;;;;;;;3.30;2.60;;;;;;;24.59;nan;100238.56;4980394;28;20033;-78
2023/08/26 08:12:14;;;;;;;3.22;2.50;;;;;;;24.58;nan;100236.88;4983240;28;20030;-76
2023/08/26 08:14:40;;;;;;;2.70;2.50;;;;;;;24.61;nan;100250.84;4987550;28;20088;-75
2023/08/26 08:17:06;;;;;;;4.82;2.85;;;;;;;24.61;nan;100261.47;4980563;28;20030;-77
2023/08/26 08:19:42;;;;;;;3.70;2.63;;;;;;;24.58;nan;100252.81;4981810;28;20033;-77
2023/08/26 08:22:07;;;;;;;3.72;2.13;;;;;;;24.59;nan;100254.47;4983214;28;20506;-78
2023/08/26 08:24:33;;;;;;;3.55;2.58;;;;;;;24.59;nan;100251.00;4991649;28;20062;-77
2023/08/26 08:27:01;;;;;;;3.47;2.28;;;;;;;24.60;nan;100252.66;4984460;28;20158;-78
2023/08/26 08:29:26;;;;;;;3.67;2.40;;;;;;;24.61;nan;100248.19;4983603;28;20534;-78
2023/08/26 08:31:52;;;;;;;4.63;2.80;;;;;;;24.59;nan;100248.34;4984264;28;20308;-77
2023/08/26 08:34:17;;;;;;;5.70;2.53;;;;;;;24.59;nan;100238.56;4988610;28;20117;-77
2023/08/26 08:36:42;;;;;;;3.65;2.45;;;;;;;24.59;nan;100246.50;4985588;28;20030;-77
2023/08/26 08:39:08;;;;;;;3.50;2.25;;;;;;;24.59;nan;100238.56;4984478;28;20144;-78
2023/08/26 08:41:37;;;;;;;4.22;2.72;;;;;;;24.61;nan;100240.22;4985133;28;20030;-79
2023/08/26 08:44:12;;;;;;;3.95;2.67;;;;;;;24.63;nan;100246.25;4986184;28;20026;-77
2023/08/26 08:46:38;;;;;;;5.70;2.58;;;;;;;24.62;nan;100239.22;4974959;28;20029;-77
2023/08/26 08:49:04;;;;;;;2.45;2.25;;;;;;;24.59;nan;100243.88;4983049;28;21022;-77
2023/08/26 08:51:30;;;;;;;8.13;2.90;;;;;;;24.59;nan;100253.66;4982195;28;20508;-77
2023/08/26 08:53:55;;;;;;;4.53;2.75;;;;;;;24.57;nan;100259.09;4991082;28;20504;-75
2023/08/26 08:56:21;;;;;;;3.35;2.58;;;;;;;24.57;nan;100260.94;4985840;28;20057;-76
2023/08/26 08:58:48;;;;;;;2.72;2.28;;;;;;;24.57;nan;100261.75;4966849;28;20040;-76
2023/08/26 09:01:18;;;;;;;4.45;2.70;;;;;;;24.56;nan;100257.44;4981199;28;20176;-76
2023/08/26 09:03:44;;;;;;;3.10;2.53;;;;;;;24.55;nan;100253.09;4986895;28;20037;-75
2023/08/26 09:06:10;;;;;;;3.13;2.53;;;;;;;24.56;nan;100256.56;4969921;28;20060;-76
2023/08/26 09:08:36;;;;;;;2.47;2.20;;;;;;;24.55;nan;100249.59;4967180;28;20796;-76
2023/08/26 09:11:01;;;;;;;4.53;2.50;;;;;;;24.54;nan;100246.13;4968634;28;20033;-76
2023/08/26 09:13:27;;;;;;;4.22;2.50;;;;;;;24.54;nan;100246.13;4987078;28;20874;-76
2023/08/26 09:15:53;;;;;;;2.88;2.50;;;;;;;24.54;nan;100246.13;4985135;28;20037;-76
2023/08/26 09:18:19;;;;;;;2.35;2.20;;;;;;;24.54;nan;100250.59;4981220;28;20062;-77
2023/08/26 09:20:47;;;;;;;4.40;2.53;;;;;;;24.54;nan;100247.94;4983436;28;20037;-77
2023/08/26 09:23:12;;;;;;;4.63;2.58;;;;;;;24.54;nan;100232.00;4988095;28;20037;-76
2023/08/26 09:25:38;;;;;;;2.30;2.10;;;;;;;24.53;nan;100241.78;4984282;28;20061;-78
2023/08/26 09:28:04;;;;;;;2.85;2.30;;;;;;;24.53;nan;100246.25;4982255;28;20054;-77
2023/08/26 09:30:30;;;;;;;4.78;2.38;;;;;;;24.53;nan;100241.78;4984916;28;20026;-77
2023/08/26 09:32:55;;;;;;;2.50;2.30;;;;;;;24.52;nan;100234.81;4985890;28;20745;-77
2023/08/26 09:35:21;;;;;;;3.65;2.70;;;;;;;24.52;nan;100242.78;4984560;28;20116;-77
2023/08/26 09:37:48;;;;;;;2.53;2.33;;;;;;;24.52;nan;100242.78;4981510;28;20533;-77
2023/08/26 09:40:14;;;;;;;3.17;2.47;;;;;;;24.52;nan;100247.25;4982744;28;20036;-78
2023/08/26 09:42:40;;;;;;;3.15;2.20;;;;;;;24.52;nan;100240.13;4981182;28;20834;-77
2023/08/26 09:45:07;;;;;;;5.82;2.20;;;;;;;24.52;nan;100231.31;4979406;28;20036;-77
2023/08/26 09:47:36;;;;;;;2.35;2.15;;;;;;;24.52;nan;100229.50;4982154;28;20026;-77
2023/08/26 09:50:06;;;;;;;4.68;2.25;;;;;;;24.52;nan;100233.97;4983451;28;20672;-77
2023/08/26 09:52:40;;;;;;;3.95;2.45;;;;;;;24.52;nan;100229.50;4981263;28;20029;-77
2023/08/26 09:55:06;;;;;;;4.97;2.67;;;;;;;24.52;nan;100221.56;4987815;28;20034;-77
2023/08/26 09:57:31;;;;;;;4.78;2.67;;;;;;;24.51;nan;100213.75;4982471;28;20057;-76
2023/08/26 09:59:57;;;;;;;2.83;2.60;;;;;;;24.51;nan;100219.88;4984964;28;20030;-77
2023/08/26 10:02:23;;;;;;;2.60;2.40;;;;;;;24.51;nan;100214.56;4987994;28;20033;-78
2023/08/26 10:04:54;;;;;;;2.35;2.15;;;;;;;24.51;nan;100206.63;4988342;28;20076;-77
2023/08/26 10:07:20;;;;;;;2.35;2.10;;;;;;;24.50;nan;100228.78;4989130;28;20053;-78
2023/08/26 10:09:46;;;;;;;2.50;2.30;;;;;;;24.51;nan;100222.53;4981610;28;20025;-78
2023/08/26 10:12:34;;;;;;;4.53;2.10;;;;;;;24.51;nan;100229.66;4985103;28;20140;-78
2023/08/26 10:15:01;;;;;;;3.20;2.38;;;;;;;24.51;nan;100235.81;4992274;28;20038;-77
2023/08/26 10:17:29;;;;;;;2.72;2.17;;;;;;;24.51;nan;100235.81;4981446;28;20049;-77
2023/08/26 10:19:55;;;;;;;5.05;2.40;;;;;;;24.51;nan;100241.13;4982720;28;20144;-76
2023/08/26 10:22:20;;;;;;;3.83;1.90;;;;;;;24.51;nan;100246.41;4986256;28;20029;-76
2023/08/26 10:24:46;;;;;;;2.67;2.00;;;;;;;24.51;nan;100253.56;4988072;28;20037;-78
2023/08/26 10:27:11;;;;;;;4.53;2.30;;;;;;;24.51;nan;100254.38;4983854;28;20042;-78
2023/08/26 10:29:37;;;;;;;3.38;2.20;;;;;;;24.51;nan;100257.03;4978425;28;20029;-77
2023/08/26 10:32:29;;;;;;;3.33;2.35;;;;;;;24.51;nan;100258.84;4989277;28;20034;-77
2023/08/26 10:34:56;;;;;;;3.05;2.33;;;;;;;24.52;nan;100257.88;4988101;28;20053;-78
2023/08/26 10:37:29;;;;;;;2.47;2.20;;;;;;;24.51;nan;100249.06;4982362;28;20491;-78
2023/08/26 10:39:55;;;;;;;2.97;2.17;;;;;;;24.33;nan;100256.91;4980535;28;20038;-79
2023/08/26 10:42:22;;;;;;;3.67;2.00;;;;;;;23.61;nan;100240.66;4967694;28;20107;-77
2023/08/26 10:44:57;;;;;;;2.85;1.60;;;;;;;22.97;nan;100242.78;4989855;28;20029;-77
2023/08/26 10:47:40;;;;;;;3.47;1.67;;;;;;;22.83;nan;100245.75;4983499;28;20040;-78
2023/08/26 10:50:18;;;;;;;3.05;1.95;;;;;;;22.63;nan;100238.69;4982929;28;20085;-77
2023/08/26 10:52:44;;;;;;;2.72;1.70;;;;;;;22.62;nan;100237.84;4985811;28;20525;-77
2023/08/26 10:55:19;;;;;;;4.35;1.80;;;;;;;22.68;nan;100247.91;4986508;28;20670;-77
2023/08/26 10:58:06;;;;;;;3.25;1.85;;;;;;;22.48;nan;100241.72;4981872;28;20497;-77
2023/08/26 11:00:32;;;;;;;4.32;1.77;;;;;;;22.58;nan;100230.34;4982323;28;20141;-77
2023/08/26 11:02:57;;;;;;;4.38;1.60;;;;;;;22.33;nan;100227.16;4988263;28;20034;-78
2023/08/26 11:05:23;;;;;;;2.10;1.77;;;;;;;22.42;nan;100230.81;4987861;28;20033;-78
2023/08/26 11:07:49;;;;;;;1.55;1.45;;;;;;;22.25;nan;100232.25;4983226;28;20498;-78
2023/08/26 11:10:27;;;;;;;4.63;3.30;;;;;;;22.36;nan;100221.59;4983134;28;20034;-77
2023/08/26 11:12:53;;;;;;;10.93;8.88;;;;;;;22.33;nan;100224.50;4979700;28;20112;-76
2023/08/26 11:15:18;;;;;;;5.95;5.35;;;;;;;22.67;nan;100219.78;4959843;28;20033;-76
2023/08/26 11:17:44;;;;;;;3.22;2.90;;;;;;;22.16;nan;100219.81;4981398;28;20042;-76
2023/08/26 11:20:12;;;;;;;5.13;3.03;;;;;;;22.51;nan;100223.88;4965031;28;20040;-75
2023/08/26 11:22:38;;;;;;;4.93;2.13;;;;;;;22.62;nan;100231.72;4991639;28;20940;-75
2023/08/26 11:25:03;;;;;;;2.17;1.98;;;;;;;22.91;nan;100237.16;4976524;28;20029;-76
2023/08/26 11:27:29;;;;;;;6.28;2.30;;;;;;;22.88;nan;100229.50;4980968;28;20069;-76
2023/08/26 11:29:54;;;;;;;7.45;2.30;;;;;;;22.94;nan;100229.78;4981432;28;20026;-77
2023/08/26 11:32:19;;;;;;;5.30;1.80;;;;;;;22.74;nan;100234.16;4985558;28;20029;-76
2023/08/26 11:34:45;;;;;;;4.22;1.80;;;;;;;22.73;nan;100237.78;4992639;28;20125;-79
2023/08/26 11:37:10;;;;;;;3.47;1.80;;;;;;;22.87;nan;100239.25;4980682;28;20044;-78
2023/08/26 11:39:37;;;;;;;3.92;1.75;;;;;;;22.68;nan;100233.84;4981184;28;20034;-80